Terminal Aerodrome Forecast
Issued by NWS

Home | Current Version | Previous Version | Text Only | Print | Product List | Glossary On
Versions: 1 2 3 4 5 6 7 8 9 10 11 12 13 14 15 16 17
211
FTUS45 KTFX 271120
TAFBZN
TAF
KBZN 271120Z 2712/2812 26008KT P6SM SCT045 BKN070 BKN150
     FM272100 29011KT P6SM VCSH SCT040 OVC060 PROB30 2723/2803 SHRA
      BKN015 BKN030
     FM280300 31010KT 2SM -SN BR SCT015 OVC025 PROB30 2803/2806
      3/4SM -SN BR BKN015
     FM280700 23004KT P6SM VCSH SCT015 BKN040=

USA.gov is the U.S. government's official web portal to all federal, state and local government web resources and services.